PAGINA EN CONSTRUCCIÓN

DISCULPEN POSIBLES FALLOS



Daganzo more information Daganzo


Meteosat more information blitzortung!


Radar lluvias  rain snow radar


Visita nuestra red de sitios de meteo:

Documentation for the template used

MeteoibericaRed estaciones Meteorologicas



Sin Advertencias climatologicas .En este momento tenemos Nivel Verde.    No hay Alarmas

Pagina Historial Weather Underground texto

Diario Resumen May 22, 2018 Unidades:  Métrico    impérial   Tanto
« Anterior Dia
Siguiente Dia »
Diario Semana Mensual Anual Personalizada
  Actual: Alto: Baja: Media:
Temperatura: -6.4 °C -17.8 °C -11.9 °C -8.7 °C
Punto de rocío: -8.6 °C -17.8 °C -12 °C -9.7 °C
Humedad: 79 % Humidity % 63 % 90 %
Velocidad del Viento: 15.6 km/h 0 km/h 0 km/h 15.1 km/h
Ráfagas de viento: 15.6 km/h 0 km/h - -
Viento:NE - - ESE
Pression baro: 34313.7 hPa 0 hPa 34279.9 hPa -
Précipitaciones: 0 mm      
Historical Graphs
 
 
Datos de tabla para May 22, 2018
Tiempo Temperatura Punto de rocío Pression baro Viento Velocidad del Viento Ráfagas de viento Humedad Las precipitaciones Rate ( Hora )
-17.8 °C -17.8 °C 0 hPa Calm     Humidity % 0 mm
00:04 -9.2 °C -9.3 °C 34303.6 hPa SE 17.9 km/h 17.9 km/h 99 % 0 mm
00:09 -9.2 °C -9.3 °C 34303.6 hPa South 20.9 km/h 20.9 km/h 99 % 0 mm
00:14 -9.2 °C -9.3 °C 34313.7 hPa SSE 21.6 km/h 21.6 km/h 99 % 0 mm
00:19 -9.2 °C -9.3 °C 34303.6 hPa South 15 km/h 15 km/h 99 % 0 mm
00:24 -9.2 °C -9.3 °C 34303.6 hPa SSE 14 km/h 14 km/h 99 % 0 mm
00:29 -9.2 °C -9.3 °C 34303.6 hPa South 15.6 km/h 15.6 km/h 99 % 0 mm
00:34 -9.2 °C -9.3 °C 34303.6 hPa South 15 km/h 15 km/h 99 % 0 mm
00:39 -9.1 °C -9.2 °C 34303.6 hPa South 15 km/h 15 km/h 99 % 0 mm
00:44 -9.2 °C -9.3 °C 34303.6 hPa South 19.6 km/h 19.6 km/h 99 % 0 mm
00:49 -9.2 °C -9.3 °C 34303.6 hPa South 15 km/h 15 km/h 99 % 0 mm
00:54 -9.2 °C -9.3 °C 34303.6 hPa SSW 15 km/h 15 km/h 99 % 0 mm
00:59 -9.3 °C -9.3 °C 34303.6 hPa South 15 km/h 15 km/h 99 % 0 mm
01:04 -9.3 °C -9.4 °C 34303.6 hPa SW 15 km/h 15 km/h 99 % 0 mm
01:09 -9.4 °C -9.5 °C 34303.6 hPa SW 9 km/h 9 km/h 99 % 0 mm
01:14 -9.4 °C -9.5 °C 34303.6 hPa West 6 km/h   99 % 0 mm
01:19 -9.4 °C -9.6 °C 34293.4 hPa West 9 km/h 9 km/h 99 % 0 mm
01:24 -9.5 °C -9.6 °C 34303.6 hPa West 5.6 km/h 5.6 km/h 99 % 0 mm
01:29 -9.6 °C -9.6 °C 34303.6 hPa North 9.8 km/h 9.8 km/h 99 % 0 mm
01:34 -9.7 °C -9.8 °C 34303.6 hPa North 11.9 km/h 11.9 km/h 99 % 0 mm
01:39 -9.7 °C -9.8 °C 34303.6 hPa NW 9.8 km/h 9.8 km/h 99 % 0 mm
01:44 -9.8 °C -9.9 °C 34303.6 hPa NW 11.6 km/h 11.6 km/h 99 % 0 mm
01:49 -9.8 °C -9.9 °C 34303.6 hPa North 15.6 km/h 15.6 km/h 99 % 0 mm
01:54 -9.9 °C -10.1 °C 34303.6 hPa North 15 km/h 15 km/h 99 % 0 mm
01:59 -9.9 °C -10.1 °C 34303.6 hPa North 15 km/h 15 km/h 99 % 0 mm
02:04 -9.9 °C -9.9 °C 34303.6 hPa North 17.9 km/h 17.9 km/h 99 % 0 mm
02:09 -9.9 °C -9.9 °C 34303.6 hPa North 17.9 km/h 17.9 km/h 99 % 0 mm
02:14 -10.1 °C -10.2 °C 34303.6 hPa North 15.6 km/h 15.6 km/h 99 % 0 mm
02:19 -10.2 °C -10.2 °C 34303.6 hPa NE 15 km/h 15 km/h 99 % 0 mm
02:24 -10.2 °C -10.3 °C 34303.6 hPa North 11.9 km/h 11.9 km/h 99 % 0 mm
02:29 -10.3 °C -10.4 °C 34303.6 hPa NE 15.6 km/h 15.6 km/h 99 % 0 mm
02:34 -10.3 °C -10.4 °C 34303.6 hPa North 15 km/h 15 km/h 99 % 0 mm
02:39 -10.3 °C -10.4 °C 34303.6 hPa North 11.9 km/h 11.9 km/h 99 % 0 mm
02:44 -10.3 °C -10.4 °C 34303.6 hPa NNE 11.6 km/h 11.6 km/h 99 % 0 mm
02:49 -10.2 °C -10.3 °C 34303.6 hPa NE 15 km/h 15 km/h 99 % 0 mm
02:54 -10.2 °C -10.2 °C 34313.7 hPa NE 15 km/h 15 km/h 99 % 0 mm
02:59 -10.2 °C -10.2 °C 34303.6 hPa North 15 km/h 15 km/h 99 % 0 mm
03:01 -10.2 °C -10.2 °C 34303.6 hPa NE 15 km/h 15 km/h 99 % 0 mm
03:06 -10.2 °C -10.3 °C 34303.6 hPa NE 9.8 km/h 9.8 km/h 99 % 0 mm
03:11 -10.2 °C -10.3 °C 34313.7 hPa North 9.8 km/h 9.8 km/h 99 % 0 mm
03:16 -10.3 °C -10.4 °C 34313.7 hPa NE 11.9 km/h 11.9 km/h 99 % 0 mm
03:21 -10.3 °C -10.4 °C 34303.6 hPa North 15 km/h 15 km/h 99 % 0 mm
03:26 -10.3 °C -10.4 °C 34303.6 hPa NE 11.9 km/h 11.9 km/h 99 % 0 mm
03:31 -10.3 °C -10.4 °C 34303.6 hPa NE 9.8 km/h 9.8 km/h 99 % 0 mm
03:36 -10.4 °C -10.4 °C 34303.6 hPa North 9 km/h 9 km/h 99 % 0 mm
03:41 -10.4 °C -10.4 °C 34303.6 hPa East 9 km/h 9 km/h 99 % 0 mm
03:46 -10.3 °C -10.4 °C 34293.4 hPa NW 9 km/h 9 km/h 99 % 0 mm
03:51 -10.5 °C -10.6 °C 34303.6 hPa North 9 km/h 9 km/h 99 % 0 mm
03:56 -10.7 °C -10.8 °C 34303.6 hPa NW 9.8 km/h 9.8 km/h 99 % 0 mm
04:01 -10.8 °C -10.9 °C 34303.6 hPa North 9 km/h 9 km/h 99 % 0 mm
04:06 -10.9 °C -11 °C 34293.4 hPa North 9.8 km/h 9.8 km/h 99 % 0 mm
04:11 -10.8 °C -10.9 °C 34293.4 hPa North 9.8 km/h 9.8 km/h 99 % 0 mm
04:16 -10.8 °C -10.9 °C 34293.4 hPa NNE 9.8 km/h 9.8 km/h 99 % 0 mm
04:21 -10.9 °C -11 °C 34293.4 hPa North 9 km/h 9 km/h 99 % 0 mm
04:26 -10.9 °C -11 °C 34293.4 hPa North 9 km/h 9 km/h 99 % 0 mm
04:31 -10.9 °C -11 °C 34293.4 hPa North 9 km/h 9 km/h 99 % 0 mm
04:36 -11 °C -11.1 °C 34293.4 hPa North 9 km/h 9 km/h 99 % 0 mm
04:41 -11.1 °C -11.2 °C 34293.4 hPa North 9 km/h 9 km/h 99 % 0 mm
04:46 -11.2 °C -11.3 °C 34293.4 hPa North 9 km/h 9 km/h 99 % 0 mm
04:51 -11.1 °C -11.2 °C 34293.4 hPa North 6 km/h   99 % 0 mm
04:56 -11.1 °C -11.2 °C 34293.4 hPa North 4.2 km/h 4.2 km/h 99 % 0 mm
05:01 -11.1 °C -11.2 °C 34293.4 hPa North 6 km/h 6 km/h 99 % 0 mm
05:06 -11 °C -11.1 °C 34293.4 hPa NE 9 km/h 9 km/h 99 % 0 mm
05:11 -10.9 °C -11 °C 34293.4 hPa NE 6 km/h 6 km/h 99 % 0 mm
05:16 -10.9 °C -11 °C 34293.4 hPa NE 3.1 km/h   99 % 0 mm
05:21 -11.1 °C -11.2 °C 34293.4 hPa North 6 km/h 6 km/h 99 % 0 mm
05:26 -11.1 °C -11.2 °C 34279.9 hPa North 6 km/h 6 km/h 99 % 0 mm
05:31 -11.2 °C -11.3 °C 34293.4 hPa North 6 km/h 6 km/h 99 % 0 mm
05:32 -11.2 °C -11.3 °C 34293.4 hPa North 6 km/h   99 % 0 mm
05:37 -11.2 °C -11.3 °C 34293.4 hPa Calm     99 % 0 mm
05:42 -11.1 °C -11.2 °C 34293.4 hPa South 4.2 km/h 4.2 km/h 99 % 0 mm
05:47 -11.1 °C -11.2 °C 34293.4 hPa South 3.1 km/h   99 % 0 mm
05:52 -11.2 °C -11.3 °C 34293.4 hPa NW 6 km/h 6 km/h 99 % 0 mm
05:57 -11.2 °C -11.3 °C 34279.9 hPa NW 6 km/h 6 km/h 99 % 0 mm
06:02 -11.2 °C -11.3 °C 34279.9 hPa NW 3.1 km/h   99 % 0 mm
06:07 -11.3 °C -11.3 °C 34293.4 hPa North 8 km/h 8 km/h 99 % 0 mm
06:12 -11.4 °C -11.6 °C 34293.4 hPa North 11.9 km/h 11.9 km/h 99 % 0 mm
06:17 -11.6 °C -11.6 °C 34293.4 hPa North 9.8 km/h 9.8 km/h 99 % 0 mm
06:22 -11.6 °C -11.7 °C 34293.4 hPa North 9.8 km/h 9.8 km/h 99 % 0 mm
06:27 -11.6 °C -11.6 °C 34293.4 hPa North 9 km/h 9 km/h 99 % 0 mm
06:32 -11.3 °C -11.4 °C 34293.4 hPa North 6 km/h 6 km/h 99 % 0 mm
06:37 -11.6 °C -11.7 °C 34293.4 hPa North 9.8 km/h 9.8 km/h 99 % 0 mm
06:42 -11.6 °C -11.7 °C 34293.4 hPa North 11.9 km/h 11.9 km/h 99 % 0 mm
06:47 -11.7 °C -11.8 °C 34303.6 hPa North 6 km/h 6 km/h 99 % 0 mm
06:52 -11.7 °C -11.8 °C 34303.6 hPa North 3.1 km/h   99 % 0 mm
06:57 -11.7 °C -11.8 °C 34303.6 hPa North 4.2 km/h 4.2 km/h 99 % 0 mm
07:02 -11.7 °C -11.8 °C 34303.6 hPa North 3.1 km/h   99 % 0 mm
07:07 -11.9 °C -12 °C 34303.6 hPa North 6 km/h 6 km/h 99 % 0 mm
07:12 -11.7 °C -11.8 °C 34303.6 hPa North 3.1 km/h   99 % 0 mm
07:17 -11.7 °C -11.8 °C 34303.6 hPa North 4.2 km/h 4.2 km/h 99 % 0 mm
07:22 -11.7 °C -11.8 °C 34313.7 hPa North 6 km/h 6 km/h 99 % 0 mm
07:27 -11.7 °C -11.8 °C 34303.6 hPa North 3.1 km/h   99 % 0 mm
07:32 -11.6 °C -11.7 °C 34313.7 hPa Calm     99 % 0 mm
07:37 -11.7 °C -11.8 °C 34313.7 hPa North 9.8 km/h 9.8 km/h 99 % 0 mm
07:42 -11.7 °C -11.8 °C 34313.7 hPa North 9.8 km/h 9.8 km/h 99 % 0 mm
07:47 -11.6 °C -11.7 °C 34313.7 hPa North 9 km/h 9 km/h 99 % 0 mm
07:52 -11.6 °C -11.6 °C 34313.7 hPa North 9 km/h 9 km/h 99 % 0 mm
07:57 -11.6 °C -11.6 °C 34327.3 hPa North 6 km/h 6 km/h 99 % 0 mm
08:02 -11.4 °C -11.5 °C 34313.7 hPa NNE 9.8 km/h 9.8 km/h 99 % 0 mm
08:07 -11.2 °C -11.3 °C 34327.3 hPa North 15 km/h 15 km/h 99 % 0 mm
08:12 -11 °C -11.1 °C 34327.3 hPa North 15 km/h   99 % 0 mm
08:17 -10.7 °C -10.8 °C 34327.3 hPa North 6 km/h 6 km/h 99 % 0 mm
08:22 -10.6 °C -10.7 °C 34327.3 hPa NW 6 km/h 6 km/h 99 % 0 mm
08:27 -10.5 °C -10.6 °C 34337.4 hPa NW 4.2 km/h 4.2 km/h 99 % 0 mm
08:32 -10.3 °C -10.4 °C 34337.4 hPa NW 4.2 km/h 4.2 km/h 99 % 0 mm
08:37 -10.1 °C -10.2 °C 34337.4 hPa NE 5.6 km/h   99 % 0 mm
08:42 -9.7 °C -9.8 °C 34337.4 hPa South 8 km/h 8 km/h 99 % 0 mm
08:47 -9.8 °C -9.9 °C 34337.4 hPa South 9 km/h 9 km/h 99 % 0 mm
08:52 -9.8 °C -9.9 °C 34337.4 hPa South 9 km/h 9 km/h 99 % 0 mm
08:57 -9.8 °C -9.9 °C 34337.4 hPa East 6 km/h   99 % 0 mm
09:02 -9.7 °C -9.8 °C 34337.4 hPa East 4.2 km/h   99 % 0 mm
09:07 -9.8 °C -9.9 °C 34337.4 hPa South 6 km/h 6 km/h 99 % 0 mm
09:12 -9.8 °C -9.9 °C 34337.4 hPa South 6 km/h 6 km/h 99 % 0 mm
09:17 -9.7 °C -9.8 °C 34337.4 hPa East 9.8 km/h 9.8 km/h 99 % 0 mm
09:22 -9.5 °C -9.6 °C 34337.4 hPa East 9 km/h 9 km/h 99 % 0 mm
09:27 -9.3 °C -9.3 °C 34337.4 hPa East 9 km/h 9 km/h 99 % 0 mm
09:32 -9.2 °C -9.3 °C 34337.4 hPa East 11.6 km/h 11.6 km/h 99 % 0 mm
09:37 -9.1 °C -9.2 °C 34337.4 hPa East 9.8 km/h 9.8 km/h 99 % 0 mm
09:42 -9.1 °C -9.2 °C 34347.6 hPa South 11.9 km/h 11.9 km/h 99 % 0 mm
09:43 -9.1 °C -9.2 °C 34347.6 hPa South 9.8 km/h 9.8 km/h 99 % 0 mm
09:48 -9.1 °C -9.2 °C 34347.6 hPa SSE 5.1 km/h 15.6 km/h 99 % 0 mm
09:53 -9.2 °C -9.3 °C 34337.4 hPa South 17.9 km/h 17.9 km/h 99 % 0 mm
09:58 -9.2 °C -9.3 °C 34337.4 hPa South 15.6 km/h 15.6 km/h 99 % 0 mm
10:03 -9.2 °C -9.3 °C 34337.4 hPa South 19.6 km/h 19.6 km/h 99 % 0 mm
10:08 -9.1 °C -9.2 °C 34347.6 hPa South 12.9 km/h 20.8 km/h 99 % 0 mm
10:09 -9.1 °C -9.1 °C 34337.4 hPa South 20.9 km/h 20.9 km/h 99 % 0 mm
10:14 -9 °C -9.1 °C 34337.4 hPa SE 15.6 km/h 15.6 km/h 99 % 0 mm
10:19 -8.8 °C -8.9 °C 34337.4 hPa SSW 19.6 km/h 19.6 km/h 99 % 0 mm
10:24 -8.7 °C -8.8 °C 34337.4 hPa South 17.9 km/h 17.9 km/h 99 % 0 mm
10:29 -8.7 °C -8.8 °C 34337.4 hPa South 17.9 km/h 17.9 km/h 99 % 0 mm
10:34 -8.7 °C -8.8 °C 34337.4 hPa SSW 15 km/h 15 km/h 99 % 0 mm
10:39 -8.7 °C -8.8 °C 34337.4 hPa South 15 km/h 15 km/h 99 % 0 mm
10:44 -8.5 °C -8.6 °C 34337.4 hPa South 20.9 km/h 20.9 km/h 99 % 0 mm
10:49 -8.4 °C -8.6 °C 34337.4 hPa SW 17.9 km/h 17.9 km/h 98 % 0 mm
10:54 -8.3 °C -8.6 °C 34337.4 hPa South 15 km/h 15 km/h 97 % 0 mm
10:59 -8.1 °C -8.4 °C 34337.4 hPa South 17.9 km/h 17.9 km/h 96 % 0 mm
11:04 -8.1 °C -8.7 °C 34337.4 hPa SE 20.9 km/h 20.9 km/h 94 % 0 mm
11:09 -8.1 °C -8.7 °C 34347.6 hPa South 15.6 km/h 15.6 km/h 94 % 0 mm
11:14 -8.1 °C -8.7 °C 34337.4 hPa SW 20.9 km/h 20.9 km/h 93 % 0 mm
11:19 -7.9 °C -8.8 °C 34337.4 hPa SW 15 km/h 15 km/h 91 % 0 mm
11:24 -7.8 °C -8.9 °C 34337.4 hPa South 17.9 km/h 17.9 km/h 88 % 0 mm
11:29 -7.7 °C -8.7 °C 34337.4 hPa South 9.8 km/h 9.8 km/h 89 % 0 mm
11:34 -7.7 °C -8.9 °C 34347.6 hPa SW 15.6 km/h 15.6 km/h 87 % 0 mm
11:39 -7.6 °C -8.9 °C 34337.4 hPa South 20.9 km/h 20.9 km/h 86 % 0 mm
11:44 -7.8 °C -9.1 °C 34337.4 hPa West 14 km/h 14 km/h 87 % 0 mm
11:49 -7.7 °C -8.7 °C 34347.6 hPa SW 26.9 km/h 26.9 km/h 89 % 0 mm
11:54 -7.6 °C -8.8 °C 34347.6 hPa SE 15.6 km/h 15.6 km/h 87 % 0 mm
11:59 -7.2 °C -8.6 °C 34347.6 hPa SW 15.6 km/h 15.6 km/h 86 % 0 mm
12:04 -7.3 °C -8.8 °C 34347.6 hPa SW 17.9 km/h 17.9 km/h 84 % 0 mm
12:09 -7.3 °C -8.7 °C 34347.6 hPa South 21.6 km/h 21.6 km/h 86 % 0 mm
12:14 -7.2 °C -8.4 °C 34347.6 hPa NE 8 km/h 8 km/h 87 % 0 mm
12:19 -7.1 °C -8.7 °C 34347.6 hPa South 23.8 km/h 23.8 km/h 83 % 0 mm
12:24 -7.1 °C -8.7 °C 34347.6 hPa ENE 20.9 km/h 20.9 km/h 83 % 0 mm
12:29 -7 °C -8.8 °C 34337.4 hPa NE 15 km/h 15 km/h 82 % 0 mm
12:34 -6.7 °C -8.4 °C 34337.4 hPa NE 9.8 km/h 9.8 km/h 82 % 0 mm
12:39 -6.8 °C -8.8 °C 34347.6 hPa South 26.9 km/h 26.9 km/h 80 % 0 mm
12:44 -6.8 °C -8.6 °C 34337.4 hPa SE 15.6 km/h 15.6 km/h 82 % 0 mm
12:49 -6.8 °C -8.8 °C 34347.6 hPa East 15.6 km/h 15.6 km/h 80 % 0 mm
12:54 -6.9 °C -8.8 °C 34337.4 hPa East 23.8 km/h 23.8 km/h 81 % 0 mm
12:59 -6.8 °C -8.4 °C 34337.4 hPa South 15.6 km/h 15.6 km/h 83 % 0 mm
13:04 -6.8 °C -8.4 °C 34337.4 hPa South 26.9 km/h 26.9 km/h 83 % 0 mm
13:09 -6.6 °C -8.3 °C 34337.4 hPa SSE 29.5 km/h 29.5 km/h 82 % 0 mm
13:14 -6.2 °C -8.2 °C 34337.4 hPa SW 17.9 km/h 17.9 km/h 80 % 0 mm
13:19 -6.5 °C -8.6 °C 34347.6 hPa South 23.8 km/h 23.8 km/h 79 % 0 mm
13:24 -6.6 °C -8.7 °C 34337.4 hPa South 15 km/h 15 km/h 79 % 0 mm
13:29 -6.4 °C -8.4 °C 34337.4 hPa NE 20.9 km/h 20.9 km/h 80 % 0 mm
13:34 -6.3 °C -8.4 °C 34337.4 hPa SE 20.9 km/h 20.9 km/h 79 % 0 mm
13:39 -6.2 °C -8.4 °C 34337.4 hPa South 15 km/h 15 km/h 78 % 0 mm
13:44 -6.2 °C -8.5 °C 34337.4 hPa ENE 15.6 km/h 15.6 km/h 77 % 0 mm
13:49 -6.1 °C -8.6 °C 34337.4 hPa South 20.9 km/h 20.9 km/h 75 % 0 mm
13:54 -5.8 °C -8.5 °C 34337.4 hPa SW 23.8 km/h 23.8 km/h 74 % 0 mm
13:59 -6 °C -8.9 °C 34337.4 hPa South 21.6 km/h 21.6 km/h 72 % 0 mm
14:04 -5.8 °C -8.5 °C 34327.3 hPa South 17.9 km/h 17.9 km/h 74 % 0 mm
14:09 -6.1 °C -8.7 °C 34327.3 hPa South 20.9 km/h 20.9 km/h 74 % 0 mm
14:14 -5.9 °C -8.4 °C 34327.3 hPa South 17.9 km/h 17.9 km/h 76 % 0 mm
14:19 -6.1 °C -8.7 °C 34327.3 hPa NW 15 km/h 15 km/h 74 % 0 mm
14:24 -5.9 °C -8.7 °C 34327.3 hPa SW 23.8 km/h 23.8 km/h 73 % 0 mm
14:29 -5.7 °C -8.7 °C 34327.3 hPa SW 11.9 km/h 11.9 km/h 72 % 0 mm
14:34 -5.6 °C -8.6 °C 34327.3 hPa SW 11.6 km/h 11.6 km/h 71 % 0 mm
14:39 -5.3 °C -8.7 °C 34327.3 hPa South 21.6 km/h 21.6 km/h 68 % 0 mm
14:44 -5.5 °C -9.1 °C 34327.3 hPa SW 26.9 km/h 26.9 km/h 67 % 0 mm
14:49 -5.4 °C -9 °C 34327.3 hPa NW 15 km/h 15 km/h 67 % 0 mm
14:54 -5.6 °C -9.1 °C 34337.4 hPa South 20.9 km/h 20.9 km/h 67 % 0 mm
14:59 -5.6 °C -8.8 °C 34327.3 hPa SSE 19.6 km/h 19.6 km/h 69 % 0 mm
15:04 -5.4 °C -9 °C 34327.3 hPa SE 23.8 km/h 23.8 km/h 67 % 0 mm
15:09 -5.4 °C -9.1 °C 34327.3 hPa SW 26.9 km/h 26.9 km/h 66 % 0 mm
15:14 -5.2 °C -9.1 °C 34327.3 hPa South 15.6 km/h 15.6 km/h 65 % 0 mm
15:19 -5.3 °C -9.3 °C 34327.3 hPa NW 21.6 km/h 21.6 km/h 64 % 0 mm
15:24 -5.1 °C -9.1 °C 34327.3 hPa SW 19.6 km/h 19.6 km/h 64 % 0 mm
15:29 -5.2 °C -9.3 °C 34313.7 hPa South 26.9 km/h 26.9 km/h 63 % 0 mm
15:34 -5.2 °C -9.3 °C 34313.7 hPa East 17.9 km/h 17.9 km/h 63 % 0 mm
15:39 -5.4 °C -8.6 °C 34327.3 hPa NW 45.4 km/h 45.4 km/h 70 % 0 mm
15:44 -6.1 °C -8.7 °C 34313.7 hPa NW 59.5 km/h 59.5 km/h 75 % 0 mm
15:49 -6.1 °C -8.6 °C 34327.3 hPa NW 55.2 km/h 55.2 km/h 76 % 0 mm
15:54 -6.4 °C -8.8 °C 34327.3 hPa NW 53.6 km/h 53.6 km/h 76 % 0 mm
15:59 -6.3 °C -8.5 °C 34327.3 hPa NW 50.7 km/h 50.7 km/h 78 % 0 mm
16:04 -6.4 °C -8.8 °C 34337.4 hPa North 47.6 km/h 47.6 km/h 77 % 0 mm
16:09 -6.2 °C -8.4 °C 34327.3 hPa NNE 38.8 km/h 38.8 km/h 78 % 0 mm
16:14 -6.2 °C -8.4 °C 34327.3 hPa NNE 38.8 km/h 38.8 km/h 78 % 0 mm
16:19 -6.4 °C -8.2 °C 34327.3 hPa North 38.8 km/h 38.8 km/h 82 % 0 mm
16:24 -6.4 °C -8.5 °C 34337.4 hPa NNE 44.7 km/h 44.7 km/h 79 % 0 mm
16:29 -6.4 °C -8.4 °C 34337.4 hPa North 29.8 km/h 29.8 km/h 80 % 0 mm
16:34 -6.4 °C -8.6 °C 34337.4 hPa NW 26.9 km/h 26.9 km/h 79 % 0 mm
16:39 -6.5 °C -8.4 °C 34327.3 hPa North 23.8 km/h 23.8 km/h 81 % 0 mm
16:44 -6.5 °C -8.4 °C 34337.4 hPa NNE 20.9 km/h 20.9 km/h 81 % 0 mm
16:47 -6.5 °C -8.4 °C 34327.3 hPa North 23.8 km/h 23.8 km/h 81 % 0 mm
16:52 -6.4 °C -8.1 °C 34327.3 hPa North 20.9 km/h 20.9 km/h 83 % 0 mm
16:57 -6.4 °C -8.3 °C 34327.3 hPa North 21.6 km/h 21.6 km/h 81 % 0 mm
17:02 -6.3 °C -8.3 °C 34327.3 hPa North 14 km/h 14 km/h 80 % 0 mm
17:07 -6.2 °C -8.4 °C 34327.3 hPa North 15 km/h 15 km/h 78 % 0 mm
17:12 -6.3 °C -8.7 °C 34327.3 hPa North 23.8 km/h 23.8 km/h 76 % 0 mm
17:17 -6.3 °C -9.1 °C 34327.3 hPa NW 26.9 km/h 26.9 km/h 73 % 0 mm
17:22 -6.2 °C -8.6 °C 34327.3 hPa NW 15 km/h 15 km/h 77 % 0 mm
17:27 -6.3 °C -9.1 °C 34327.3 hPa North 17.9 km/h 17.9 km/h 73 % 0 mm
17:29 -6.3 °C -8.9 °C 34327.3 hPa NW 15 km/h 15 km/h 74 % 0 mm
17:34 -6.3 °C -8.8 °C 34327.3 hPa North 17.9 km/h 17.9 km/h 75 % 0 mm
17:39 -6.2 °C -8.7 °C 34313.7 hPa North 20.9 km/h 20.9 km/h 76 % 0 mm
17:44 -6.2 °C -8.9 °C 34327.3 hPa North 15 km/h 15 km/h 74 % 0 mm
17:49 -6.2 °C -8.6 °C 34327.3 hPa North 9 km/h 9 km/h 76 % 0 mm
17:54 -6.1 °C -8.8 °C 34327.3 hPa North 9 km/h 9 km/h 74 % 0 mm
17:59 -6.2 °C -8.8 °C 34327.3 hPa North 15.6 km/h 15.6 km/h 74 % 0 mm
18:04 -6.2 °C -8.9 °C 34327.3 hPa NE 15 km/h 15 km/h 73 % 0 mm
18:09 -6.1 °C -8.8 °C 34327.3 hPa East 9 km/h 9 km/h 73 % 0 mm
18:14 -6.1 °C -8.6 °C 34327.3 hPa NE 11.9 km/h 11.9 km/h 76 % 0 mm
18:19 -6.1 °C -8.5 °C 34327.3 hPa NW 11.9 km/h 11.9 km/h 76 % 0 mm
18:24 -6 °C -8.4 °C 34327.3 hPa NNE 15.6 km/h 15.6 km/h 76 % 0 mm
18:29 -6.1 °C -8.4 °C 34327.3 hPa NE 15 km/h 15 km/h 77 % 0 mm
18:34 -6.1 °C -8.6 °C 34327.3 hPa East 17.9 km/h 17.9 km/h 76 % 0 mm
18:39 -6.2 °C -8.6 °C 34327.3 hPa East 23.8 km/h 23.8 km/h 77 % 0 mm
18:44 -6.3 °C -8.5 °C 34327.3 hPa NE 15.6 km/h 15.6 km/h 78 % 0 mm
18:49 -6.3 °C -8.6 °C 34327.3 hPa NE 15 km/h 15 km/h 78 % 0 mm
18:54 -6.3 °C -8.4 °C 34327.3 hPa NE 15 km/h 15 km/h 79 % 0 mm
18:59 -6.3 °C -8.4 °C 34313.7 hPa East 19.6 km/h 19.6 km/h 79 % 0 mm
19:04 -6.4 °C -8.5 °C 34327.3 hPa ENE 20.9 km/h 20.9 km/h 79 % 0 mm
19:09 -6.4 °C -8.6 °C 34313.7 hPa East 17.9 km/h 17.9 km/h 79 % 0 mm
19:14 -6.4 °C -8.6 °C 34313.7 hPa NE 15.6 km/h 15.6 km/h 79 % 0 mm
meteodaganzo
Elogios de Weather Underground - 4 mb

Guión original por  Jim McMurry - jmcmurry@mwt.net Adaptado para la plantilla por  Wim van der Kuil - Leuven-Template.eu

Usted encontrará nuestra información del tiempo también en:

WeatherCloud

Weather Underground

Iberian Peninsula Weather Network

AWEKAS

Citizen Weather Observer Program (CWOP)